Time;durP1;ratioP1;P1;durP2;ratioP2;P2;SDS_P1;SDS_P2;PMS_P1;PMS_P2;Temp;Humidity;BMP_temperature;BMP_pressure;BME280_temperature;BME280_humidity;BME280_pressure;Samples;Min_cycle;Max_cycle;Signal;HPM_P1;HPM_P2
2020/12/24 00:00:07;;;;;;;9.23;2.30;;;9.30;63.50;;;;;;4980455;28;20230;-76
2020/12/24 00:02:39;;;;;;;5.17;1.30;;;9.20;27.10;;;;;;4978084;28;20472;-76
2020/12/24 00:05:04;;;;;;;4.67;1.50;;;9.20;34.30;;;;;;4974494;28;20456;-76
2020/12/24 00:07:30;;;;;;;6.83;1.33;;;9.10;41.70;;;;;;4971879;28;20517;-76
2020/12/24 00:09:56;;;;;;;7.50;1.63;;;9.10;38.60;;;;;;4977227;28;20682;-76
2020/12/24 00:12:21;;;;;;;5.63;1.33;;;9.10;13.40;;;;;;4969719;28;20248;-76
2020/12/24 00:14:47;;;;;;;8.67;1.10;;;9.00;23.30;;;;;;4967040;28;20189;-75
2020/12/24 00:17:13;;;;;;;8.40;1.77;;;9.00;20.30;;;;;;4963150;28;20204;-77
2020/12/24 00:19:38;;;;;;;3.37;1.73;;;9.00;24.10;;;;;;4964695;28;20212;-76
2020/12/24 00:22:07;;;;;;;7.77;2.07;;;8.90;13.70;;;;;;4973299;28;20192;-76
2020/12/24 00:24:32;;;;;;;8.47;1.17;;;8.90;11.40;;;;;;4973884;28;20455;-76
2020/12/24 00:26:58;;;;;;;9.27;1.33;;;8.90;1.00;;;;;;4977414;28;20542;-76
2020/12/24 00:29:24;;;;;;;5.23;1.93;;;8.90;1.00;;;;;;4968360;28;20177;-76
2020/12/24 00:31:49;;;;;;;6.83;2.10;;;8.90;1.00;;;;;;4977352;28;20215;-76
2020/12/24 00:34:15;;;;;;;8.13;1.83;;;8.90;1.00;;;;;;4969961;28;21132;-76
2020/12/24 00:36:41;;;;;;;5.77;1.90;;;8.90;1.00;;;;;;4991474;28;20687;-76
2020/12/24 00:39:06;;;;;;;10.33;1.83;;;8.80;1.00;;;;;;4974442;28;20188;-76
2020/12/24 00:41:32;;;;;;;7.77;1.37;;;8.80;1.00;;;;;;4981549;28;20190;-76
2020/12/24 00:43:58;;;;;;;4.03;1.90;;;8.70;1.00;;;;;;4976278;28;20274;-76
2020/12/24 00:46:24;;;;;;;3.37;1.43;;;8.70;1.00;;;;;;4969400;28;20800;-76
2020/12/24 00:48:50;;;;;;;5.70;1.20;;;8.70;3.70;;;;;;4971220;28;21235;-76
2020/12/24 00:51:16;;;;;;;12.10;2.03;;;8.70;6.90;;;;;;4973887;28;20484;-76
2020/12/24 00:53:41;;;;;;;5.83;1.70;;;8.60;9.30;;;;;;4974659;28;20824;-76
2020/12/24 00:56:09;;;;;;;6.30;1.70;;;8.60;9.20;;;;;;4969735;28;20247;-76
2020/12/24 00:58:38;;;;;;;9.00;1.83;;;8.60;7.40;;;;;;5004642;28;20471;-76
2020/12/24 01:01:05;;;;;;;5.93;1.63;;;8.60;8.10;;;;;;4982623;28;20479;-76
2020/12/24 01:03:31;;;;;;;6.50;1.90;;;8.50;7.30;;;;;;4972968;28;20475;-76
2020/12/24 01:05:57;;;;;;;7.10;1.90;;;8.60;15.20;;;;;;4974785;28;20470;-76
2020/12/24 01:08:33;;;;;;;6.00;1.60;;;8.50;6.10;;;;;;4977590;28;20232;-76
2020/12/24 01:10:58;;;;;;;6.60;1.87;;;8.50;5.40;;;;;;4967972;28;20606;-75
2020/12/24 01:13:24;;;;;;;6.27;1.57;;;8.50;22.50;;;;;;4964984;28;20827;-75
2020/12/24 01:15:50;;;;;;;8.40;2.50;;;8.60;23.50;;;;;;4978905;28;20197;-75
2020/12/24 01:18:15;;;;;;;7.87;2.00;;;8.60;1.00;;;;;;4971572;28;20209;-75
2020/12/24 01:20:41;;;;;;;5.80;2.10;;;8.70;7.50;;;;;;4963820;28;20241;-75
2020/12/24 01:23:07;;;;;;;6.60;2.07;;;8.70;9.10;;;;;;4962068;28;20585;-75
2020/12/24 01:25:33;;;;;;;5.33;1.90;;;8.60;14.70;;;;;;4974462;28;20203;-75
2020/12/24 01:27:59;;;;;;;6.90;1.70;;;8.60;11.80;;;;;;4970830;28;20193;-76
2020/12/24 01:30:25;;;;;;;8.90;2.03;;;8.60;1.00;;;;;;4974537;28;20572;-76
2020/12/24 01:32:51;;;;;;;5.17;1.90;;;8.50;2.40;;;;;;4977430;28;20506;-76
2020/12/24 01:35:16;;;;;;;11.53;2.37;;;8.50;1.00;;;;;;4966131;28;20534;-76
2020/12/24 01:37:42;;;;;;;7.37;2.20;;;8.50;9.90;;;;;;4965753;28;20223;-76
2020/12/24 01:40:08;;;;;;;6.23;1.60;;;8.30;8.00;;;;;;4968923;28;20218;-75
2020/12/24 01:42:33;;;;;;;10.17;1.73;;;8.30;18.60;;;;;;4971822;28;20195;-74
2020/12/24 01:44:59;;;;;;;6.43;1.90;;;8.40;1.00;;;;;;4958820;28;20817;-76
2020/12/24 01:47:24;;;;;;;5.33;2.20;;;8.30;2.60;;;;;;4967348;28;20618;-75
2020/12/24 01:49:50;;;;;;;17.47;2.70;;;8.30;1.00;;;;;;4973283;28;20390;-76
2020/12/24 01:52:31;;;;;;;7.03;2.17;;;8.30;12.40;;;;;;4974402;28;20778;-74
2020/12/24 01:54:57;;;;;;;6.03;2.10;;;8.10;17.80;;;;;;4968545;28;20321;-76
2020/12/24 01:57:23;;;;;;;9.20;1.83;;;8.20;3.50;;;;;;4963269;28;20486;-76
2020/12/24 01:59:49;;;;;;;7.53;1.63;;;8.20;1.00;;;;;;4974535;28;20566;-76
2020/12/24 02:02:15;;;;;;;6.43;1.80;;;8.20;3.50;;;;;;4975974;28;20189;-76
2020/12/24 02:04:40;;;;;;;11.50;2.20;;;8.20;1.00;;;;;;4964899;28;21742;-76
2020/12/24 02:07:06;;;;;;;8.23;2.17;;;8.20;1.00;;;;;;4963889;28;20374;-76
2020/12/24 02:09:32;;;;;;;5.80;2.13;;;8.20;1.00;;;;;;4971098;28;20215;-76
2020/12/24 02:11:58;;;;;;;5.90;1.80;;;8.20;1.00;;;;;;4973156;28;20493;-76
2020/12/24 02:14:27;;;;;;;2.83;1.37;;;8.20;1.00;;;;;;4974800;28;20181;-76
2020/12/24 02:16:53;;;;;;;9.73;2.07;;;8.10;1.00;;;;;;4971110;28;20558;-76
2020/12/24 02:19:18;;;;;;;7.53;1.67;;;8.00;1.00;;;;;;4963668;28;20462;-75
2020/12/24 02:21:44;;;;;;;8.37;2.03;;;8.10;1.00;;;;;;4959157;28;20191;-75
2020/12/24 02:24:10;;;;;;;6.30;1.50;;;8.10;1.00;;;;;;4961838;28;20174;-75
2020/12/24 02:26:35;;;;;;;5.83;1.57;;;8.20;1.00;;;;;;4975718;28;20228;-75
2020/12/24 02:29:01;;;;;;;12.40;2.03;;;8.30;1.00;;;;;;4972590;28;20271;-75
2020/12/24 02:31:27;;;;;;;15.03;2.47;;;8.30;1.00;;;;;;4988107;28;20585;-75
2020/12/24 02:33:52;;;;;;;14.20;2.73;;;8.40;1.00;;;;;;4971015;28;20216;-75
2020/12/24 02:36:18;;;;;;;11.33;2.03;;;8.40;1.00;;;;;;4972859;28;20239;-76
2020/12/24 02:38:44;;;;;;;9.10;2.23;;;8.40;1.00;;;;;;4964376;28;20197;-76
2020/12/24 02:41:10;;;;;;;5.97;1.80;;;8.40;1.00;;;;;;4971531;28;20181;-76
2020/12/24 02:43:35;;;;;;;11.67;1.80;;;8.50;1.00;;;;;;4972802;28;20237;-76
2020/12/24 02:46:01;;;;;;;7.07;2.33;;;8.50;1.00;;;;;;4978285;28;20895;-75
2020/12/24 02:48:27;;;;;;;8.50;1.90;;;8.50;1.00;;;;;;4975903;28;20623;-75
2020/12/24 02:50:53;;;;;;;5.67;2.03;;;8.50;1.00;;;;;;4970800;28;20260;-75
2020/12/24 02:53:19;;;;;;;4.80;1.50;;;8.50;1.00;;;;;;4976690;28;21887;-75
2020/12/24 02:55:45;;;;;;;10.10;1.93;;;8.50;1.00;;;;;;4996581;28;20453;-76
2020/12/24 02:58:11;;;;;;;7.97;2.20;;;8.40;1.00;;;;;;4969555;28;20322;-76
2020/12/24 03:00:36;;;;;;;6.20;1.77;;;8.50;1.00;;;;;;4978788;28;20935;-76
2020/12/24 03:03:02;;;;;;;13.90;2.83;;;8.50;1.00;;;;;;4975489;28;20178;-76
2020/12/24 03:05:28;;;;;;;7.00;1.80;;;8.50;1.00;;;;;;4977014;28;20232;-76
2020/12/24 03:07:53;;;;;;;5.20;1.17;;;8.50;1.00;;;;;;4979914;28;20192;-76
2020/12/24 03:10:19;;;;;;;10.53;1.57;;;8.50;1.00;;;;;;4966398;28;20229;-76
2020/12/24 03:12:45;;;;;;;10.57;2.37;;;8.50;1.00;;;;;;4965903;28;20295;-76
2020/12/24 03:15:17;;;;;;;4.90;1.60;;;8.50;1.00;;;;;;4974198;28;20818;-76
2020/12/24 03:17:42;;;;;;;5.30;1.77;;;8.50;1.00;;;;;;4977547;28;20581;-76
2020/12/24 03:20:08;;;;;;;10.70;3.10;;;8.50;1.00;;;;;;4967843;28;20467;-76
2020/12/24 03:22:38;;;;;;;4.43;1.60;;;8.50;1.00;;;;;;4974656;28;20591;-76
2020/12/24 03:25:04;;;;;;;6.83;1.87;;;8.50;1.00;;;;;;4979221;28;20195;-76
2020/12/24 03:27:30;;;;;;;8.87;1.43;;;8.50;1.00;;;;;;4977466;28;21319;-76
2020/12/24 03:29:56;;;;;;;7.77;1.37;;;8.50;1.00;;;;;;4975734;28;20451;-76
2020/12/24 03:32:22;;;;;;;5.67;2.00;;;8.40;1.00;;;;;;4967485;28;20247;-76
2020/12/24 03:34:48;;;;;;;2.93;1.40;;;8.30;1.00;;;;;;4971305;28;20980;-76
2020/12/24 03:37:14;;;;;;;8.13;1.90;;;8.20;3.30;;;;;;4975531;28;22193;-75
2020/12/24 03:39:40;;;;;;;8.53;1.60;;;8.20;4.70;;;;;;4979296;28;20464;-76
2020/12/24 03:42:05;;;;;;;9.13;1.70;;;8.20;1.00;;;;;;4971523;28;20199;-75
2020/12/24 03:44:31;;;;;;;5.90;1.50;;;8.20;1.00;;;;;;4973180;28;20181;-75
2020/12/24 03:46:57;;;;;;;11.97;1.67;;;8.20;1.00;;;;;;4978999;28;20249;-75
2020/12/24 03:49:22;;;;;;;7.43;1.67;;;8.20;1.00;;;;;;4980417;28;20255;-75
2020/12/24 03:51:48;;;;;;;7.33;2.30;;;8.20;1.00;;;;;;4982865;28;20205;-75
2020/12/24 03:54:14;;;;;;;7.47;1.47;;;8.20;1.00;;;;;;4977182;28;20219;-75
2020/12/24 03:56:40;;;;;;;12.40;1.83;;;8.20;1.00;;;;;;4976970;28;20534;-75
2020/12/24 03:59:05;;;;;;;4.63;1.43;;;8.20;1.00;;;;;;4981169;28;20880;-75
2020/12/24 04:01:31;;;;;;;6.33;1.47;;;8.20;1.00;;;;;;4981033;28;20223;-75
2020/12/24 04:03:57;;;;;;;7.10;1.33;;;8.10;1.00;;;;;;4979294;28;20254;-76
2020/12/24 04:06:23;;;;;;;8.90;1.50;;;8.20;1.00;;;;;;4978486;28;20447;-76
2020/12/24 04:08:48;;;;;;;5.77;1.27;;;8.20;1.00;;;;;;4967535;28;20579;-76
2020/12/24 04:11:14;;;;;;;9.77;1.57;;;8.20;1.00;;;;;;4970519;28;20189;-76
2020/12/24 04:13:40;;;;;;;5.87;1.60;;;8.20;1.00;;;;;;4981632;28;20188;-76
2020/12/24 04:16:06;;;;;;;11.53;2.53;;;8.20;1.00;;;;;;4974136;28;20454;-76
2020/12/24 04:18:31;;;;;;;5.53;1.80;;;8.20;1.00;;;;;;4974372;28;20704;-76
2020/12/24 04:21:00;;;;;;;9.03;1.43;;;8.10;1.00;;;;;;4975031;28;20276;-76
2020/12/24 04:23:25;;;;;;;11.77;1.43;;;8.20;1.00;;;;;;4977990;28;20195;-75
2020/12/24 04:25:51;;;;;;;8.20;1.40;;;8.10;1.00;;;;;;4976352;28;20473;-76
2020/12/24 04:28:17;;;;;;;10.60;1.67;;;8.10;1.00;;;;;;4974886;28;21137;-75
2020/12/24 04:30:43;;;;;;;9.53;1.77;;;8.10;1.00;;;;;;4967055;28;20724;-75
2020/12/24 04:33:10;;;;;;;4.77;1.47;;;8.10;1.00;;;;;;4969108;28;20818;-75
2020/12/24 04:35:36;;;;;;;5.80;1.63;;;8.10;1.00;;;;;;4971785;28;20515;-75
2020/12/24 04:38:02;;;;;;;3.80;1.40;;;8.10;1.00;;;;;;4965701;28;20466;-75
2020/12/24 04:40:27;;;;;;;6.87;1.40;;;8.10;1.00;;;;;;4969787;28;21890;-75
2020/12/24 04:42:53;;;;;;;7.10;1.50;;;8.20;1.00;;;;;;4971413;28;20503;-75
2020/12/24 04:45:21;;;;;;;4.63;1.60;;;8.20;1.00;;;;;;4972537;28;20299;-76
2020/12/24 04:47:54;;;;;;;6.43;1.60;;;8.20;1.00;;;;;;4972590;28;20643;-75
2020/12/24 04:50:21;;;;;;;6.50;1.60;;;8.10;1.00;;;;;;4973486;28;20911;-76
2020/12/24 04:52:48;;;;;;;4.47;1.53;;;8.10;1.00;;;;;;4977521;28;20501;-75
2020/12/24 04:55:15;;;;;;;9.13;1.83;;;8.10;1.00;;;;;;4968867;28;20944;-75
2020/12/24 04:57:42;;;;;;;8.90;1.83;;;8.10;1.00;;;;;;4970146;28;20464;-75
2020/12/24 05:00:09;;;;;;;11.57;1.83;;;8.10;1.00;;;;;;4974637;28;20500;-75
2020/12/24 05:02:34;;;;;;;7.50;1.23;;;8.10;1.00;;;;;;4975761;28;20485;-74
2020/12/24 05:05:03;;;;;;;5.50;1.60;;;8.00;1.00;;;;;;4976661;28;20555;-73
2020/12/24 05:07:29;;;;;;;3.13;1.50;;;8.10;1.00;;;;;;4978924;28;20184;-74
2020/12/24 05:09:55;;;;;;;13.40;3.17;;;8.00;1.00;;;;;;4976377;28;20479;-73
2020/12/24 05:12:31;;;;;;;3.40;1.30;;;7.90;1.00;;;;;;4975975;28;20221;-74
2020/12/24 05:14:57;;;;;;;6.90;1.73;;;8.00;1.00;;;;;;4977902;28;20824;-74
2020/12/24 05:17:24;;;;;;;11.60;1.93;;;8.00;1.00;;;;;;4970195;28;20472;-74
2020/12/24 05:20:07;;;;;;;8.30;1.40;;;7.90;1.00;;;;;;4969861;28;20961;-73
2020/12/24 05:22:32;;;;;;;9.53;1.87;;;7.90;3.60;;;;;;4973933;28;20475;-74
2020/12/24 05:25:19;;;;;;;5.13;1.60;;;7.80;1.00;;;;;;4971775;28;20467;-74
2020/12/24 05:28:03;;;;;;;7.43;1.53;;;7.90;9.50;;;;;;4971602;28;20280;-74
2020/12/24 05:30:30;;;;;;;8.53;2.33;;;7.90;10.30;;;;;;4974146;28;20546;-75
2020/12/24 05:32:56;;;;;;;13.43;2.00;;;7.90;3.40;;;;;;4968021;28;20562;-74
2020/12/24 05:35:26;;;;;;;8.03;1.40;;;7.90;12.90;;;;;;4974043;28;20534;-75
2020/12/24 05:37:53;;;;;;;9.80;1.30;;;7.90;36.00;;;;;;4971633;28;20311;-76
2020/12/24 05:40:27;;;;;;;5.80;1.70;;;7.80;38.80;;;;;;4972158;28;20989;-75
2020/12/24 05:43:00;;;;;;;6.40;1.60;;;7.80;47.80;;;;;;4972803;28;20545;-76
2020/12/24 05:45:28;;;;;;;3.70;1.60;;;7.80;74.40;;;;;;4971003;28;20866;-77
2020/12/24 05:48:11;;;;;;;6.37;1.90;;;7.80;59.80;;;;;;4972177;28;22638;-75
2020/12/24 05:50:38;;;;;;;10.27;1.40;;;7.80;98.00;;;;;;4974240;28;20548;-75
2020/12/24 05:53:12;;;;;;;4.23;1.50;;;7.70;99.90;;;;;;4969834;28;20557;-75
2020/12/24 05:55:39;;;;;;;6.97;2.13;;;7.70;99.90;;;;;;4970955;28;20458;-75
2020/12/24 05:58:07;;;;;;;5.90;2.20;;;7.70;99.90;;;;;;4972841;28;20588;-77
2020/12/24 06:00:41;;;;;;;4.80;1.40;;;7.70;99.90;;;;;;4972914;28;20454;-76
2020/12/24 06:03:13;;;;;;;11.10;2.23;;;7.70;99.90;;;;;;4968729;28;21084;-77
2020/12/24 06:06:01;;;;;;;6.70;1.57;;;7.70;99.90;;;;;;4968470;28;21361;-77
2020/12/24 06:08:28;;;;;;;6.00;1.63;;;7.60;99.90;;;;;;4972819;28;21822;-76
2020/12/24 06:11:01;;;;;;;7.80;1.80;;;7.50;99.90;;;;;;4973674;28;20460;-77
2020/12/24 06:13:49;;;;;;;8.30;1.80;;;7.50;99.90;;;;;;4971482;28;20532;-76
2020/12/24 06:16:15;;;;;;;6.70;1.50;;;7.40;1.00;;;;;;4971101;28;20461;-76
2020/12/24 06:18:43;;;;;;;6.53;1.43;;;7.40;1.00;;;;;;4973123;28;20465;-76
2020/12/24 06:21:19;;;;;;;8.97;1.50;;;7.40;99.90;;;;;;4973410;28;20646;-77
2020/12/24 06:24:07;;;;;;;10.93;2.27;;;7.50;99.90;;;;;;4972032;28;20454;-76
2020/12/24 06:26:39;;;;;;;3.90;1.40;;;7.50;99.90;;;;;;4970540;28;20517;-76
2020/12/24 06:29:04;;;;;;;10.97;1.57;;;7.50;99.90;;;;;;4973917;28;20534;-76
2020/12/24 06:31:34;;;;;;;8.10;1.60;;;7.50;99.90;;;;;;4968729;28;20486;-76
2020/12/24 06:34:24;;;;;;;13.40;2.30;;;7.40;99.90;;;;;;4970430;28;20270;-77
2020/12/24 06:36:49;;;;;;;7.50;1.90;;;7.40;99.90;;;;;;4967634;28;21040;-76
2020/12/24 06:39:51;;;;;;;11.63;2.10;;;7.40;99.90;;;;;;4972547;28;20471;-76
2020/12/24 06:42:36;;;;;;;8.20;2.10;;;7.40;99.90;;;;;;4969370;28;20277;-75
2020/12/24 06:45:07;;;;;;;8.30;1.47;;;7.50;99.90;;;;;;4975907;28;20491;-75
2020/12/24 06:47:33;;;;;;;9.00;2.53;;;7.40;99.90;;;;;;4970189;28;20464;-75
2020/12/24 06:49:58;;;;;;;5.30;2.10;;;7.40;99.90;;;;;;4965219;28;20475;-74
2020/12/24 06:52:31;;;;;;;7.00;1.87;;;7.40;99.90;;;;;;4967630;28;20275;-76
2020/12/24 06:55:16;;;;;;;5.00;1.60;;;7.40;1.00;;;;;;4970044;28;20181;-76
2020/12/24 06:57:44;;;;;;;6.40;1.90;;;7.40;99.90;;;;;;4972906;28;20448;-76
2020/12/24 07:00:24;;;;;;;8.37;2.20;;;7.40;99.90;;;;;;4971293;28;20491;-76
2020/12/24 07:02:52;;;;;;;12.93;1.93;;;7.50;99.90;;;;;;4970122;28;20523;-76
2020/12/24 07:05:41;;;;;;;4.23;1.50;;;7.50;99.90;;;;;;4965358;28;20494;-73
2020/12/24 07:08:32;;;;;;;3.87;1.60;;;7.40;99.90;;;;;;4967395;28;22041;-76
2020/12/24 07:11:00;;;;;;;4.83;1.83;;;7.40;99.90;;;;;;4976423;28;20453;-76
2020/12/24 07:13:33;;;;;;;4.77;2.30;;;7.40;99.90;;;;;;4972070;28;20495;-76
2020/12/24 07:15:58;;;;;;;4.47;1.47;;;7.40;99.90;;;;;;4968188;28;20471;-76
2020/12/24 07:18:24;;;;;;;14.37;1.70;;;7.40;99.90;;;;;;4969003;28;20468;-76
2020/12/24 07:20:52;;;;;;;8.90;2.13;;;7.40;99.90;;;;;;4973619;28;20563;-76
2020/12/24 07:23:35;;;;;;;11.23;1.70;;;7.50;99.90;;;;;;4966009;28;20509;-77
2020/12/24 07:26:02;;;;;;;7.17;2.27;;;7.50;99.90;;;;;;4974694;28;20806;-75
2020/12/24 07:28:35;;;;;;;4.40;1.83;;;7.50;99.90;;;;;;4977645;28;20451;-75
2020/12/24 07:31:05;;;;;;;6.40;1.70;;;7.50;99.90;;;;;;4974560;28;20914;-75
2020/12/24 07:33:31;;;;;;;5.93;1.73;;;7.50;99.90;;;;;;4962786;28;20531;-76
2020/12/24 07:35:57;;;;;;;4.23;1.37;;;7.50;99.90;;;;;;4971905;28;20804;-77
2020/12/24 07:38:26;;;;;;;10.50;2.10;;;7.60;99.90;;;;;;4969750;28;20466;-76
2020/12/24 07:40:52;;;;;;;11.60;2.40;;;7.60;99.90;;;;;;4976700;28;20441;-76
2020/12/24 07:43:18;;;;;;;5.30;1.87;;;7.60;99.90;;;;;;4974965;28;20449;-77
2020/12/24 07:45:44;;;;;;;6.13;1.93;;;7.50;99.90;;;;;;4977030;28;20194;-76
2020/12/24 07:48:15;;;;;;;6.57;2.30;;;7.50;99.90;;;;;;4977419;28;20466;-76
2020/12/24 07:50:42;;;;;;;6.63;2.13;;;7.50;99.90;;;;;;4973844;28;20934;-76
2020/12/24 07:53:15;;;;;;;5.17;2.13;;;7.60;99.90;;;;;;4976236;28;20516;-76
2020/12/24 07:55:41;;;;;;;5.77;2.30;;;7.50;99.90;;;;;;4971507;28;20448;-76
2020/12/24 07:58:11;;;;;;;9.50;2.03;;;7.50;99.90;;;;;;4977190;28;20466;-76
2020/12/24 08:00:48;;;;;;;12.17;2.97;;;7.60;90.80;;;;;;4973366;28;20195;-76
2020/12/24 08:03:16;;;;;;;3.00;1.00;;;7.70;99.90;;;;;;4976082;28;20469;-76
2020/12/24 08:05:42;;;;;;;1.93;1.00;;;7.30;11.10;;;;;;4971003;28;20810;-75
2020/12/24 08:08:08;;;;;;;1.10;1.00;;;7.10;9.00;;;;;;4977985;28;20485;-75
2020/12/24 08:10:41;;;;;;;1.73;1.13;;;6.70;12.10;;;;;;4976507;28;20440;-75
2020/12/24 08:13:08;;;;;;;1.57;1.20;;;6.70;1.00;;;;;;4974769;28;20684;-75
2020/12/24 08:15:39;;;;;;;1.60;0.93;;;6.50;11.50;;;;;;4973680;28;21200;-76
2020/12/24 08:18:07;;;;;;;1.47;1.20;;;6.30;12.10;;;;;;4974517;28;20969;-76
2020/12/24 08:21:10;;;;;;;1.30;1.20;;;6.10;4.60;;;;;;4978252;28;20467;-76
2020/12/24 08:23:56;;;;;;;1.40;1.30;;;5.80;1.00;;;;;;4949595;28;20466;-76
2020/12/24 08:26:22;;;;;;;1.50;1.40;;;5.70;20.30;;;;;;4960527;28;20456;-76
2020/12/24 08:28:53;;;;;;;1.30;1.20;;;5.60;34.30;;;;;;4972781;28;20506;-75
2020/12/24 08:31:20;;;;;;;1.93;1.40;;;5.60;66.70;;;;;;4974117;28;20293;-76
2020/12/24 08:33:51;;;;;;;1.33;1.23;;;5.70;74.70;;;;;;4983540;28;20581;-76
2020/12/24 08:36:23;;;;;;;1.37;1.03;;;5.80;56.10;;;;;;4984491;28;20692;-76
2020/12/24 08:38:50;;;;;;;1.50;1.20;;;5.60;26.20;;;;;;4972977;28;21033;-76
2020/12/24 08:41:23;;;;;;;1.40;1.10;;;5.60;24.70;;;;;;4973063;28;20759;-76
2020/12/24 08:43:54;;;;;;;1.57;1.27;;;5.50;27.80;;;;;;4976058;28;21593;-75
2020/12/24 08:46:21;;;;;;;1.60;1.37;;;5.30;28.20;;;;;;4976796;28;20480;-76
2020/12/24 08:48:48;;;;;;;1.50;1.40;;;5.30;30.40;;;;;;4974216;28;21309;-76
2020/12/24 08:51:19;;;;;;;1.40;1.30;;;5.30;41.10;;;;;;4989189;28;20829;-75
2020/12/24 08:53:45;;;;;;;2.20;1.30;;;5.40;49.90;;;;;;4979349;28;20447;-76
2020/12/24 08:56:18;;;;;;;1.93;1.30;;;5.40;35.40;;;;;;4976628;28;20547;-76
2020/12/24 08:59:11;;;;;;;2.27;1.30;;;5.30;44.30;;;;;;4979605;28;20448;-76
2020/12/24 09:01:44;;;;;;;1.60;1.13;;;5.20;37.50;;;;;;4969986;28;20521;-76
2020/12/24 09:04:17;;;;;;;2.07;1.30;;;5.20;65.60;;;;;;4973561;28;20481;-76
2020/12/24 09:06:44;;;;;;;1.67;1.50;;;5.10;74.40;;;;;;4974968;28;20452;-76
2020/12/24 09:09:19;;;;;;;1.87;1.50;;;5.00;47.50;;;;;;4981745;28;20534;-76
2020/12/24 09:11:45;;;;;;;1.70;1.30;;;5.00;46.80;;;;;;4967069;28;21299;-76
2020/12/24 09:14:16;;;;;;;2.67;2.00;;;5.00;57.80;;;;;;4969666;28;20455;-76
2020/12/24 09:17:02;;;;;;;2.13;1.73;;;5.10;60.90;;;;;;4988224;28;20632;-77
2020/12/24 09:19:28;;;;;;;5.60;4.17;;;5.00;40.40;;;;;;4978221;28;20633;-77
2020/12/24 09:21:58;;;;;;;3.97;2.67;;;5.00;67.50;;;;;;4975191;28;21016;-77
2020/12/24 09:24:25;;;;;;;1.77;1.53;;;5.00;56.90;;;;;;4967650;28;21836;-76
2020/12/24 09:26:53;;;;;;;3.33;1.43;;;5.10;66.20;;;;;;4972781;28;20451;-77
2020/12/24 09:29:20;;;;;;;2.47;1.53;;;5.20;67.10;;;;;;4967869;28;20522;-77
2020/12/24 09:31:59;;;;;;;2.27;1.63;;;5.40;86.40;;;;;;4971162;28;20581;-77
2020/12/24 09:34:29;;;;;;;1.57;1.33;;;5.40;44.30;;;;;;4974736;28;20491;-77
2020/12/24 09:36:56;;;;;;;2.13;1.50;;;5.40;37.20;;;;;;4971263;28;20453;-78
2020/12/24 09:39:22;;;;;;;2.40;1.60;;;5.50;33.50;;;;;;4973025;28;20455;-79
2020/12/24 09:41:49;;;;;;;2.40;1.60;;;5.50;15.90;;;;;;4969629;28;20867;-76
2020/12/24 09:44:15;;;;;;;3.37;1.97;;;5.50;17.00;;;;;;4974692;28;21007;-76
2020/12/24 09:46:41;;;;;;;2.33;1.83;;;5.60;18.70;;;;;;4972083;28;20476;-76
2020/12/24 09:49:07;;;;;;;3.80;1.90;;;5.60;23.80;;;;;;4979208;28;20452;-77
2020/12/24 09:51:35;;;;;;;2.53;2.07;;;5.70;24.50;;;;;;4973634;28;20490;-77
2020/12/24 09:54:02;;;;;;;2.17;1.77;;;5.80;23.90;;;;;;4973841;28;20491;-77
2020/12/24 09:56:27;;;;;;;2.90;1.83;;;5.80;15.70;;;;;;4971527;28;20479;-78
2020/12/24 09:58:53;;;;;;;1.57;1.47;;;5.70;15.20;;;;;;4972933;28;20464;-78
2020/12/24 10:01:19;;;;;;;1.90;1.50;;;5.70;16.50;;;;;;4972522;28;20854;-78
2020/12/24 10:03:45;;;;;;;2.30;1.57;;;5.80;12.40;;;;;;4973582;28;20479;-77
2020/12/24 10:06:12;;;;;;;2.67;1.80;;;5.70;11.00;;;;;;4973984;28;20210;-77
2020/12/24 10:08:37;;;;;;;5.20;2.03;;;5.70;10.00;;;;;;4976515;28;20464;-76
2020/12/24 10:11:03;;;;;;;3.03;2.00;;;5.70;15.20;;;;;;4974580;28;21222;-75
2020/12/24 10:13:29;;;;;;;3.67;2.37;;;5.70;12.40;;;;;;4979524;28;20607;-77
2020/12/24 10:15:55;;;;;;;2.60;2.10;;;5.70;15.70;;;;;;4975189;28;20213;-77
2020/12/24 10:18:21;;;;;;;3.37;1.80;;;5.60;9.40;;;;;;4970344;28;20235;-77
2020/12/24 10:20:47;;;;;;;3.83;2.10;;;5.60;7.60;;;;;;4982875;28;20262;-76
2020/12/24 10:23:13;;;;;;;2.17;1.90;;;5.60;1.00;;;;;;4978949;28;21040;-77
2020/12/24 10:25:39;;;;;;;3.40;2.13;;;5.60;1.00;;;;;;4984519;28;20447;-77
2020/12/24 10:28:06;;;;;;;1.97;1.77;;;5.70;1.00;;;;;;4973771;28;20646;-76
2020/12/24 10:30:32;;;;;;;1.73;1.57;;;5.70;5.80;;;;;;4976949;28;20460;-78
2020/12/24 10:32:57;;;;;;;2.50;2.17;;;5.70;1.00;;;;;;4977566;28;20494;-77
2020/12/24 10:35:23;;;;;;;2.60;2.17;;;5.60;1.00;;;;;;4975113;28;21024;-77
2020/12/24 10:37:49;;;;;;;2.20;2.00;;;5.60;4.80;;;;;;4968560;28;20184;-76
2020/12/24 10:40:14;;;;;;;1.93;1.67;;;5.70;6.10;;;;;;4969313;28;20198;-77
2020/12/24 10:42:40;;;;;;;2.40;2.20;;;5.60;1.00;;;;;;4971006;28;20303;-77
2020/12/24 10:45:09;;;;;;;2.13;1.87;;;5.60;1.00;;;;;;4971421;28;20178;-77
2020/12/24 10:47:34;;;;;;;2.57;2.27;;;5.70;1.00;;;;;;4972059;28;20555;-76
2020/12/24 10:50:00;;;;;;;4.37;2.70;;;5.80;1.00;;;;;;4975966;28;20453;-76
2020/12/24 10:52:26;;;;;;;1.87;1.70;;;5.70;1.00;;;;;;4972023;28;20965;-76
2020/12/24 10:54:51;;;;;;;3.40;2.60;;;5.60;1.00;;;;;;4976423;28;20194;-75
2020/12/24 10:57:17;;;;;;;2.73;2.30;;;5.50;1.00;;;;;;4971100;28;20202;-77
2020/12/24 10:59:43;;;;;;;1.87;1.70;;;5.60;1.00;;;;;;4974718;28;20189;-77
2020/12/24 11:02:08;;;;;;;3.80;2.60;;;5.60;1.00;;;;;;4973969;28;20201;-78
2020/12/24 11:04:34;;;;;;;2.17;1.97;;;5.60;1.00;;;;;;4974648;28;20602;-76
2020/12/24 11:07:00;;;;;;;2.70;2.50;;;5.70;1.00;;;;;;4973778;28;20193;-77
2020/12/24 11:09:26;;;;;;;2.90;2.60;;;5.70;1.00;;;;;;4956427;28;25534;-76
2020/12/24 11:11:52;;;;;;;3.40;2.60;;;5.80;1.00;;;;;;4966811;28;20530;-77
2020/12/24 11:14:17;;;;;;;4.03;3.07;;;5.80;1.00;;;;;;4971902;28;20226;-76
2020/12/24 11:16:43;;;;;;;2.63;2.23;;;5.80;1.00;;;;;;4965744;28;20493;-76
2020/12/24 11:19:09;;;;;;;3.17;2.70;;;5.70;1.00;;;;;;4972859;28;20283;-76
2020/12/24 11:21:36;;;;;;;3.87;2.93;;;5.80;1.00;;;;;;4969809;28;20208;-76
2020/12/24 11:24:06;;;;;;;3.90;3.20;;;5.80;1.00;;;;;;4969721;28;20530;-76
2020/12/24 11:26:33;;;;;;;3.47;2.80;;;5.80;1.00;;;;;;4972321;28;20540;-76
2020/12/24 11:28:59;;;;;;;3.10;2.63;;;5.90;1.00;;;;;;4975643;28;20491;-76
2020/12/24 11:31:26;;;;;;;5.23;4.83;;;5.90;1.00;;;;;;4972095;28;20563;-76
2020/12/24 11:33:52;;;;;;;27.70;24.07;;;5.90;1.00;;;;;;4966554;28;20204;-77
2020/12/24 11:36:19;;;;;;;17.00;12.63;;;5.90;1.00;;;;;;4982855;28;20700;-77
2020/12/24 11:38:45;;;;;;;9.83;8.83;;;5.80;9.70;;;;;;4973084;28;20985;-77
2020/12/24 11:41:16;;;;;;;7.97;7.17;;;5.90;17.90;;;;;;4973284;28;20454;-76
2020/12/24 11:43:43;;;;;;;7.00;6.23;;;5.80;1.00;;;;;;4988405;28;20963;-76
2020/12/24 11:46:10;;;;;;;6.23;5.40;;;5.80;5.40;;;;;;4986310;28;20980;-76
2020/12/24 11:48:35;;;;;;;7.27;5.60;;;5.70;1.00;;;;;;4977763;28;20455;-76
2020/12/24 11:51:04;;;;;;;7.90;6.67;;;5.50;5.90;;;;;;4978775;28;20847;-77
2020/12/24 11:53:30;;;;;;;8.70;7.03;;;5.60;29.30;;;;;;4982930;28;20229;-79
2020/12/24 11:55:56;;;;;;;7.77;6.67;;;5.60;21.20;;;;;;4980332;28;20440;-76
2020/12/24 11:58:21;;;;;;;9.60;8.23;;;5.60;28.00;;;;;;4973469;28;20863;-77
2020/12/24 12:00:47;;;;;;;11.80;9.30;;;5.50;69.30;;;;;;4980388;28;20182;-77
2020/12/24 12:03:13;;;;;;;10.33;8.30;;;5.60;94.00;;;;;;4981929;28;20295;-76
2020/12/24 12:05:39;;;;;;;10.50;8.00;;;5.60;40.30;;;;;;4980659;28;20262;-77
2020/12/24 12:08:05;;;;;;;7.50;6.70;;;5.40;21.40;;;;;;4975887;28;21215;-77
2020/12/24 12:10:30;;;;;;;10.60;8.13;;;5.50;32.90;;;;;;4980667;28;20449;-77
2020/12/24 12:12:56;;;;;;;12.03;7.90;;;5.60;31.20;;;;;;4981259;28;20315;-77
2020/12/24 12:15:22;;;;;;;11.90;8.00;;;5.70;22.50;;;;;;4972460;28;20277;-76
2020/12/24 12:17:47;;;;;;;15.03;9.53;;;5.80;37.00;;;;;;4969058;28;22826;-77
2020/12/24 12:20:13;;;;;;;16.50;10.60;;;5.80;25.40;;;;;;4973108;28;20300;-76
2020/12/24 12:22:39;;;;;;;11.20;9.20;;;5.70;55.60;;;;;;4965890;28;20204;-76
2020/12/24 12:25:04;;;;;;;13.30;9.97;;;5.60;90.00;;;;;;4979537;28;20193;-77
2020/12/24 12:27:30;;;;;;;10.80;9.30;;;5.60;99.90;;;;;;4966063;28;21774;-78
2020/12/24 12:29:56;;;;;;;10.57;8.43;;;5.70;99.90;;;;;;4970558;28;20227;-77
2020/12/24 12:32:21;;;;;;;11.70;10.10;;;5.80;99.90;;;;;;4972268;28;20355;-76
2020/12/24 12:34:48;;;;;;;12.43;10.23;;;5.60;99.30;;;;;;4966035;28;20264;-78
2020/12/24 12:37:17;;;;;;;15.83;12.10;;;5.60;99.90;;;;;;4967011;28;21100;-77
2020/12/24 12:39:42;;;;;;;15.13;12.73;;;5.70;99.90;;;;;;4958389;28;20452;-76
2020/12/24 12:42:08;;;;;;;15.77;11.77;;;5.60;99.90;;;;;;4975896;28;20465;-76
2020/12/24 12:44:34;;;;;;;13.70;11.60;;;5.60;99.90;;;;;;4971362;28;21126;-76
2020/12/24 12:46:59;;;;;;;12.73;11.20;;;5.50;99.90;;;;;;4977975;28;20190;-76
2020/12/24 12:49:28;;;;;;;15.70;12.27;;;5.50;99.90;;;;;;4975052;28;20220;-76
2020/12/24 12:51:53;;;;;;;13.60;11.97;;;5.40;99.90;;;;;;4969690;28;20228;-76
2020/12/24 12:54:19;;;;;;;13.17;11.10;;;5.50;99.90;;;;;;4956536;28;20559;-76
2020/12/24 12:56:45;;;;;;;13.63;10.90;;;5.50;99.90;;;;;;4973558;28;20623;-76
2020/12/24 12:59:11;;;;;;;13.70;10.33;;;5.50;99.90;;;;;;4978170;28;20194;-77
2020/12/24 13:01:36;;;;;;;13.63;10.37;;;5.60;99.90;;;;;;4974512;28;20197;-77
2020/12/24 13:04:05;;;;;;;12.50;9.73;;;5.60;99.90;;;;;;4979837;28;20464;-76